Flugplatz Achmer (EDXA)

Hier findest Du alle Informationen zum Flugplatz Achmer (EDXA).

Informationen für Piloten zum Flugplatz Achmer

Hier findest Du alle relevanten Informationen, die Du als Pilot benötigst, um Achmer anzufliegen.

Flugplatz: Achmer ICAO-Code: EDXA
Frequenz Turm: 123,050 Mhz GAFOR Gebiet: 9
Frequenz Ground: 123,050 Mhz Mogas: nein
Platzrunde: N 1000 ft Landegebühr: -
Platzhöhe: - Sunrise: 03:24 Uhr UTC
Pisten: 07/25 - 940 m x 30 m, GRAS Sunset: 19:25 Uhr UTC

Flugwetter am Flugplatz Achmer

Die METAR Information stammen aus EDDG (31.15 km entfernt).

METAR Code:
2022/05/13 08:20
EDDG 130820Z 24014KT 200V260 9999 FEW025 15/08 Q1018 TEMPO 25015G25KT

Temperatur: 16,6 °C Niederschlag: - Wind: 9,3 kt (max.: 18,7 kt in Böen)
Temperatur (min.): 15,5 °C Luftdruck: 1020 hPa Windrichtung: 276 °
Temperatur (max.): 18,0 °C Luftfeuchtigkeit: 91 % Bewölkung: 8/8

Flugschulen am Flugplatz Achmer

Am Flugplatz Achmer gibt es leider keine Flugschule.

Benachbarte Flugplätze und Flugschulen

Es gibt 12 weitere Flugplätze in einem Umkreis von 50 km um den Flugplatz Achmer.

Jetzt anmelden

Passwort vergessen

Umfrage Archiv

Sendet Ihr ADS-B und/oder FLARM?

Ja
81.6 %
Nein
18.4 %
Stimmen: 147 | Diskussion
Anzeige: Roland Aircraft
Statistik Alle Mitglieder

Aktuell sind 63 Besucher online, davon 3 Mitglieder und 60 Gäste.


Mitglieder online:
Steffen_E  Moskito_Andi  Dodo 

Anzeige: ULPower Aero Engines Anzeige: Pocket FMS